sensor_id;sensor_type;location;lat;lon;timestamp;P1;durP1;ratioP1;P2;durP2;ratioP2
50549;SDS011;36505;52.512;13.460;2023-05-29T00:02:23;11.05;;;3.88;;
50549;SDS011;36505;52.512;13.460;2023-05-29T00:04:48;11.00;;;4.07;;
50549;SDS011;36505;52.512;13.460;2023-05-29T00:07:13;10.90;;;3.30;;
50549;SDS011;36505;52.512;13.460;2023-05-29T00:09:39;11.13;;;3.58;;
50549;SDS011;36505;52.512;13.460;2023-05-29T00:12:04;12.55;;;3.45;;
50549;SDS011;36505;52.512;13.460;2023-05-29T00:14:30;11.05;;;3.45;;
50549;SDS011;36505;52.512;13.460;2023-05-29T00:16:56;10.30;;;3.63;;
50549;SDS011;36505;52.512;13.460;2023-05-29T00:19:21;10.32;;;3.78;;
50549;SDS011;36505;52.512;13.460;2023-05-29T00:21:48;9.50;;;3.28;;
50549;SDS011;36505;52.512;13.460;2023-05-29T00:24:14;10.70;;;4.10;;
50549;SDS011;36505;52.512;13.460;2023-05-29T00:26:40;14.07;;;5.80;;
50549;SDS011;36505;52.512;13.460;2023-05-29T00:29:06;11.27;;;3.72;;
50549;SDS011;36505;52.512;13.460;2023-05-29T00:31:31;10.15;;;3.30;;
50549;SDS011;36505;52.512;13.460;2023-05-29T00:33:57;11.82;;;3.90;;
50549;SDS011;36505;52.512;13.460;2023-05-29T00:36:22;12.68;;;4.22;;
50549;SDS011;36505;52.512;13.460;2023-05-29T00:38:48;9.20;;;3.58;;
50549;SDS011;36505;52.512;13.460;2023-05-29T00:41:14;9.73;;;3.30;;
50549;SDS011;36505;52.512;13.460;2023-05-29T00:43:40;13.82;;;5.57;;
50549;SDS011;36505;52.512;13.460;2023-05-29T00:46:06;8.52;;;3.78;;
50549;SDS011;36505;52.512;13.460;2023-05-29T00:48:32;8.23;;;3.33;;
50549;SDS011;36505;52.512;13.460;2023-05-29T00:50:57;10.48;;;3.90;;
50549;SDS011;36505;52.512;13.460;2023-05-29T00:53:23;7.95;;;2.72;;
50549;SDS011;36505;52.512;13.460;2023-05-29T00:55:48;10.30;;;3.60;;
50549;SDS011;36505;52.512;13.460;2023-05-29T00:58:14;9.10;;;3.47;;
50549;SDS011;36505;52.512;13.460;2023-05-29T01:00:40;11.40;;;3.53;;
50549;SDS011;36505;52.512;13.460;2023-05-29T01:03:06;7.43;;;3.03;;
50549;SDS011;36505;52.512;13.460;2023-05-29T01:05:33;8.50;;;3.45;;
50549;SDS011;36505;52.512;13.460;2023-05-29T01:08:00;10.25;;;3.30;;
50549;SDS011;36505;52.512;13.460;2023-05-29T01:10:26;15.65;;;3.97;;
50549;SDS011;36505;52.512;13.460;2023-05-29T01:13:01;7.32;;;3.42;;
50549;SDS011;36505;52.512;13.460;2023-05-29T01:15:46;9.18;;;3.38;;
50549;SDS011;36505;52.512;13.460;2023-05-29T01:24:32;9.75;;;3.13;;
50549;SDS011;36505;52.512;13.460;2023-05-29T01:27:09;9.10;;;2.90;;
50549;SDS011;36505;52.512;13.460;2023-05-29T01:29:36;9.30;;;2.78;;
50549;SDS011;36505;52.512;13.460;2023-05-29T01:32:04;10.70;;;3.67;;
50549;SDS011;36505;52.512;13.460;2023-05-29T01:34:30;8.80;;;3.53;;
50549;SDS011;36505;52.512;13.460;2023-05-29T01:36:56;8.70;;;3.83;;
50549;SDS011;36505;52.512;13.460;2023-05-29T01:39:22;8.32;;;3.20;;
50549;SDS011;36505;52.512;13.460;2023-05-29T01:41:48;12.00;;;3.53;;
50549;SDS011;36505;52.512;13.460;2023-05-29T01:44:15;9.75;;;3.33;;
50549;SDS011;36505;52.512;13.460;2023-05-29T01:46:42;13.05;;;3.35;;
50549;SDS011;36505;52.512;13.460;2023-05-29T01:49:08;7.38;;;3.25;;
50549;SDS011;36505;52.512;13.460;2023-05-29T01:51:36;11.32;;;3.40;;
50549;SDS011;36505;52.512;13.460;2023-05-29T01:54:02;13.35;;;3.70;;
50549;SDS011;36505;52.512;13.460;2023-05-29T01:56:29;8.80;;;3.67;;
50549;SDS011;36505;52.512;13.460;2023-05-29T01:58:54;10.00;;;3.85;;
50549;SDS011;36505;52.512;13.460;2023-05-29T02:01:21;11.40;;;3.67;;
50549;SDS011;36505;52.512;13.460;2023-05-29T02:03:47;11.75;;;3.35;;
50549;SDS011;36505;52.512;13.460;2023-05-29T02:06:12;7.88;;;3.35;;
50549;SDS011;36505;52.512;13.460;2023-05-29T02:08:38;8.70;;;3.40;;
50549;SDS011;36505;52.512;13.460;2023-05-29T02:11:03;12.85;;;3.75;;
50549;SDS011;36505;52.512;13.460;2023-05-29T02:13:29;12.20;;;4.18;;
50549;SDS011;36505;52.512;13.460;2023-05-29T02:15:54;16.70;;;4.00;;
50549;SDS011;36505;52.512;13.460;2023-05-29T02:18:19;13.18;;;4.00;;
50549;SDS011;36505;52.512;13.460;2023-05-29T02:20:45;13.00;;;3.58;;
50549;SDS011;36505;52.512;13.460;2023-05-29T02:23:11;8.38;;;3.67;;
50549;SDS011;36505;52.512;13.460;2023-05-29T02:25:36;10.30;;;3.38;;
50549;SDS011;36505;52.512;13.460;2023-05-29T02:28:02;11.98;;;3.55;;
50549;SDS011;36505;52.512;13.460;2023-05-29T02:30:28;8.88;;;3.70;;
50549;SDS011;36505;52.512;13.460;2023-05-29T02:32:53;10.85;;;3.88;;
50549;SDS011;36505;52.512;13.460;2023-05-29T02:35:19;11.30;;;4.20;;
50549;SDS011;36505;52.512;13.460;2023-05-29T02:37:47;12.98;;;4.63;;
50549;SDS011;36505;52.512;13.460;2023-05-29T02:40:13;8.25;;;3.53;;
50549;SDS011;36505;52.512;13.460;2023-05-29T02:42:38;9.57;;;3.70;;
50549;SDS011;36505;52.512;13.460;2023-05-29T02:45:03;8.57;;;4.13;;
50549;SDS011;36505;52.512;13.460;2023-05-29T02:47:30;11.73;;;4.15;;
50549;SDS011;36505;52.512;13.460;2023-05-29T02:49:55;13.52;;;3.35;;
50549;SDS011;36505;52.512;13.460;2023-05-29T02:52:20;12.18;;;4.22;;
50549;SDS011;36505;52.512;13.460;2023-05-29T02:54:48;14.20;;;4.00;;
50549;SDS011;36505;52.512;13.460;2023-05-29T02:57:13;9.77;;;4.22;;
50549;SDS011;36505;52.512;13.460;2023-05-29T02:59:38;11.40;;;3.88;;
50549;SDS011;36505;52.512;13.460;2023-05-29T03:02:04;7.55;;;3.55;;
50549;SDS011;36505;52.512;13.460;2023-05-29T03:04:29;11.68;;;4.07;;
50549;SDS011;36505;52.512;13.460;2023-05-29T03:06:55;10.65;;;3.67;;
50549;SDS011;36505;52.512;13.460;2023-05-29T03:09:20;11.82;;;3.80;;
50549;SDS011;36505;52.512;13.460;2023-05-29T03:11:46;14.15;;;4.43;;
50549;SDS011;36505;52.512;13.460;2023-05-29T03:14:14;9.48;;;4.13;;
50549;SDS011;36505;52.512;13.460;2023-05-29T03:16:40;11.68;;;3.53;;
50549;SDS011;36505;52.512;13.460;2023-05-29T03:19:06;11.00;;;3.53;;
50549;SDS011;36505;52.512;13.460;2023-05-29T03:21:32;19.15;;;4.60;;
50549;SDS011;36505;52.512;13.460;2023-05-29T03:23:58;8.95;;;4.13;;
50549;SDS011;36505;52.512;13.460;2023-05-29T03:26:23;9.43;;;3.63;;
50549;SDS011;36505;52.512;13.460;2023-05-29T03:28:50;11.95;;;4.15;;
50549;SDS011;36505;52.512;13.460;2023-05-29T03:31:16;11.43;;;4.25;;
50549;SDS011;36505;52.512;13.460;2023-05-29T03:33:41;11.90;;;4.47;;
50549;SDS011;36505;52.512;13.460;2023-05-29T03:36:06;17.50;;;4.25;;
50549;SDS011;36505;52.512;13.460;2023-05-29T03:38:32;14.48;;;4.25;;
50549;SDS011;36505;52.512;13.460;2023-05-29T03:40:58;11.95;;;4.35;;
50549;SDS011;36505;52.512;13.460;2023-05-29T03:43:23;9.70;;;3.85;;
50549;SDS011;36505;52.512;13.460;2023-05-29T03:45:49;10.35;;;3.65;;
50549;SDS011;36505;52.512;13.460;2023-05-29T03:48:14;9.90;;;4.75;;
50549;SDS011;36505;52.512;13.460;2023-05-29T03:50:40;11.82;;;4.38;;
50549;SDS011;36505;52.512;13.460;2023-05-29T03:53:05;8.20;;;3.35;;
50549;SDS011;36505;52.512;13.460;2023-05-29T03:55:31;10.45;;;3.67;;
50549;SDS011;36505;52.512;13.460;2023-05-29T03:57:56;9.00;;;3.40;;
50549;SDS011;36505;52.512;13.460;2023-05-29T04:00:21;6.82;;;3.53;;
50549;SDS011;36505;52.512;13.460;2023-05-29T04:02:47;8.68;;;4.10;;
50549;SDS011;36505;52.512;13.460;2023-05-29T04:05:12;11.40;;;4.05;;
50549;SDS011;36505;52.512;13.460;2023-05-29T04:07:39;10.13;;;3.70;;
50549;SDS011;36505;52.512;13.460;2023-05-29T04:10:05;7.45;;;3.83;;
50549;SDS011;36505;52.512;13.460;2023-05-29T04:12:31;8.50;;;3.13;;
50549;SDS011;36505;52.512;13.460;2023-05-29T04:14:57;9.32;;;3.40;;
50549;SDS011;36505;52.512;13.460;2023-05-29T04:17:23;10.63;;;3.10;;
50549;SDS011;36505;52.512;13.460;2023-05-29T04:19:48;9.65;;;4.18;;
50549;SDS011;36505;52.512;13.460;2023-05-29T04:22:14;6.43;;;3.17;;
50549;SDS011;36505;52.512;13.460;2023-05-29T04:24:39;7.40;;;3.50;;
50549;SDS011;36505;52.512;13.460;2023-05-29T04:27:06;8.95;;;3.55;;
50549;SDS011;36505;52.512;13.460;2023-05-29T04:29:33;11.70;;;4.20;;
50549;SDS011;36505;52.512;13.460;2023-05-29T04:32:00;6.95;;;3.15;;
50549;SDS011;36505;52.512;13.460;2023-05-29T04:34:28;6.43;;;2.90;;
50549;SDS011;36505;52.512;13.460;2023-05-29T04:36:55;6.53;;;2.88;;
50549;SDS011;36505;52.512;13.460;2023-05-29T04:39:23;9.18;;;3.33;;
50549;SDS011;36505;52.512;13.460;2023-05-29T04:41:48;10.30;;;4.10;;
50549;SDS011;36505;52.512;13.460;2023-05-29T04:44:14;9.32;;;4.22;;
50549;SDS011;36505;52.512;13.460;2023-05-29T04:46:40;11.10;;;3.35;;
50549;SDS011;36505;52.512;13.460;2023-05-29T04:49:09;17.35;;;4.80;;
50549;SDS011;36505;52.512;13.460;2023-05-29T04:51:35;9.77;;;3.63;;
50549;SDS011;36505;52.512;13.460;2023-05-29T04:54:01;9.80;;;3.28;;
50549;SDS011;36505;52.512;13.460;2023-05-29T04:56:27;9.05;;;3.38;;
50549;SDS011;36505;52.512;13.460;2023-05-29T04:58:53;8.55;;;2.75;;
50549;SDS011;36505;52.512;13.460;2023-05-29T05:01:18;6.13;;;3.30;;
50549;SDS011;36505;52.512;13.460;2023-05-29T05:03:44;9.18;;;3.47;;
50549;SDS011;36505;52.512;13.460;2023-05-29T05:06:10;8.32;;;3.28;;
50549;SDS011;36505;52.512;13.460;2023-05-29T05:08:40;7.57;;;3.08;;
50549;SDS011;36505;52.512;13.460;2023-05-29T05:11:06;7.80;;;3.75;;
50549;SDS011;36505;52.512;13.460;2023-05-29T05:13:31;7.60;;;3.30;;
50549;SDS011;36505;52.512;13.460;2023-05-29T05:15:56;6.47;;;2.65;;
50549;SDS011;36505;52.512;13.460;2023-05-29T05:18:22;7.45;;;3.72;;
50549;SDS011;36505;52.512;13.460;2023-05-29T05:20:47;9.23;;;2.80;;
50549;SDS011;36505;52.512;13.460;2023-05-29T05:23:12;7.63;;;2.78;;
50549;SDS011;36505;52.512;13.460;2023-05-29T05:25:38;10.50;;;2.90;;
50549;SDS011;36505;52.512;13.460;2023-05-29T05:28:04;7.68;;;3.10;;
50549;SDS011;36505;52.512;13.460;2023-05-29T05:30:29;5.95;;;2.60;;
50549;SDS011;36505;52.512;13.460;2023-05-29T05:32:55;6.18;;;2.70;;
50549;SDS011;36505;52.512;13.460;2023-05-29T05:35:21;9.55;;;3.17;;
50549;SDS011;36505;52.512;13.460;2023-05-29T05:37:46;5.97;;;2.35;;
50549;SDS011;36505;52.512;13.460;2023-05-29T05:40:11;5.40;;;2.58;;
50549;SDS011;36505;52.512;13.460;2023-05-29T05:42:37;8.18;;;2.88;;
50549;SDS011;36505;52.512;13.460;2023-05-29T05:45:03;4.60;;;2.80;;
50549;SDS011;36505;52.512;13.460;2023-05-29T05:47:29;6.07;;;2.75;;
50549;SDS011;36505;52.512;13.460;2023-05-29T05:49:54;10.63;;;2.83;;
50549;SDS011;36505;52.512;13.460;2023-05-29T05:52:21;6.55;;;2.40;;
50549;SDS011;36505;52.512;13.460;2023-05-29T05:54:47;5.15;;;2.40;;
50549;SDS011;36505;52.512;13.460;2023-05-29T05:57:12;5.55;;;2.42;;
50549;SDS011;36505;52.512;13.460;2023-05-29T05:59:39;5.72;;;2.47;;
50549;SDS011;36505;52.512;13.460;2023-05-29T06:02:04;5.22;;;2.92;;
50549;SDS011;36505;52.512;13.460;2023-05-29T06:04:30;4.97;;;2.63;;
50549;SDS011;36505;52.512;13.460;2023-05-29T06:06:55;5.78;;;2.00;;
50549;SDS011;36505;52.512;13.460;2023-05-29T06:09:21;5.93;;;2.10;;
50549;SDS011;36505;52.512;13.460;2023-05-29T06:11:46;4.55;;;2.33;;
50549;SDS011;36505;52.512;13.460;2023-05-29T06:14:13;8.68;;;2.58;;
50549;SDS011;36505;52.512;13.460;2023-05-29T06:16:38;5.70;;;2.65;;
50549;SDS011;36505;52.512;13.460;2023-05-29T06:19:04;5.63;;;2.08;;
50549;SDS011;36505;52.512;13.460;2023-05-29T06:21:30;5.82;;;2.47;;
50549;SDS011;36505;52.512;13.460;2023-05-29T06:23:56;6.82;;;2.38;;
50549;SDS011;36505;52.512;13.460;2023-05-29T06:26:22;4.95;;;2.13;;
50549;SDS011;36505;52.512;13.460;2023-05-29T06:28:48;4.90;;;2.05;;
50549;SDS011;36505;52.512;13.460;2023-05-29T06:31:14;7.93;;;2.70;;
50549;SDS011;36505;52.512;13.460;2023-05-29T06:33:39;5.03;;;2.35;;
50549;SDS011;36505;52.512;13.460;2023-05-29T06:36:04;6.43;;;2.33;;
50549;SDS011;36505;52.512;13.460;2023-05-29T06:38:31;3.65;;;1.70;;
50549;SDS011;36505;52.512;13.460;2023-05-29T06:40:57;4.28;;;1.88;;
50549;SDS011;36505;52.512;13.460;2023-05-29T06:43:22;5.80;;;1.70;;
50549;SDS011;36505;52.512;13.460;2023-05-29T06:45:47;3.65;;;2.05;;
50549;SDS011;36505;52.512;13.460;2023-05-29T06:48:13;6.70;;;2.33;;
50549;SDS011;36505;52.512;13.460;2023-05-29T06:50:38;6.22;;;2.10;;
50549;SDS011;36505;52.512;13.460;2023-05-29T06:53:04;2.78;;;2.00;;
50549;SDS011;36505;52.512;13.460;2023-05-29T06:55:29;6.18;;;2.53;;
50549;SDS011;36505;52.512;13.460;2023-05-29T06:57:55;5.57;;;1.83;;
50549;SDS011;36505;52.512;13.460;2023-05-29T07:00:20;5.35;;;1.55;;
50549;SDS011;36505;52.512;13.460;2023-05-29T07:02:46;4.10;;;1.60;;
50549;SDS011;36505;52.512;13.460;2023-05-29T07:05:11;4.03;;;1.55;;
50549;SDS011;36505;52.512;13.460;2023-05-29T07:07:37;3.85;;;1.70;;
50549;SDS011;36505;52.512;13.460;2023-05-29T07:10:02;3.53;;;1.67;;
50549;SDS011;36505;52.512;13.460;2023-05-29T07:12:28;5.10;;;1.90;;
50549;SDS011;36505;52.512;13.460;2023-05-29T07:14:53;5.65;;;2.55;;
50549;SDS011;36505;52.512;13.460;2023-05-29T07:17:18;2.15;;;1.35;;
50549;SDS011;36505;52.512;13.460;2023-05-29T07:19:44;3.50;;;1.70;;
50549;SDS011;36505;52.512;13.460;2023-05-29T07:22:09;6.45;;;1.95;;
50549;SDS011;36505;52.512;13.460;2023-05-29T07:24:35;2.78;;;1.60;;
50549;SDS011;36505;52.512;13.460;2023-05-29T07:27:01;4.47;;;1.95;;
50549;SDS011;36505;52.512;13.460;2023-05-29T07:29:26;6.22;;;1.70;;
50549;SDS011;36505;52.512;13.460;2023-05-29T07:31:51;5.32;;;2.03;;
50549;SDS011;36505;52.512;13.460;2023-05-29T07:34:17;6.20;;;2.08;;
50549;SDS011;36505;52.512;13.460;2023-05-29T07:39:40;3.45;;;1.88;;
50549;SDS011;36505;52.512;13.460;2023-05-29T07:42:05;4.22;;;1.88;;
50549;SDS011;36505;52.512;13.460;2023-05-29T07:44:31;4.40;;;2.00;;
50549;SDS011;36505;52.512;13.460;2023-05-29T07:46:57;4.35;;;1.75;;
50549;SDS011;36505;52.512;13.460;2023-05-29T07:49:22;6.82;;;3.55;;
50549;SDS011;36505;52.512;13.460;2023-05-29T07:51:48;3.15;;;1.70;;
50549;SDS011;36505;52.512;13.460;2023-05-29T07:54:13;4.10;;;1.42;;
50549;SDS011;36505;52.512;13.460;2023-05-29T07:56:42;4.82;;;1.88;;
50549;SDS011;36505;52.512;13.460;2023-05-29T07:59:08;4.63;;;1.85;;
50549;SDS011;36505;52.512;13.460;2023-05-29T08:01:33;6.40;;;2.45;;
50549;SDS011;36505;52.512;13.460;2023-05-29T08:03:59;5.72;;;2.05;;
50549;SDS011;36505;52.512;13.460;2023-05-29T08:06:24;2.50;;;1.35;;
50549;SDS011;36505;52.512;13.460;2023-05-29T08:08:50;4.10;;;1.63;;
50549;SDS011;36505;52.512;13.460;2023-05-29T08:11:17;3.95;;;2.33;;
50549;SDS011;36505;52.512;13.460;2023-05-29T08:13:42;8.00;;;1.60;;
50549;SDS011;36505;52.512;13.460;2023-05-29T08:16:08;4.30;;;1.52;;
50549;SDS011;36505;52.512;13.460;2023-05-29T08:18:33;2.78;;;1.60;;
50549;SDS011;36505;52.512;13.460;2023-05-29T08:20:59;3.60;;;1.63;;
50549;SDS011;36505;52.512;13.460;2023-05-29T08:23:24;5.43;;;1.50;;
50549;SDS011;36505;52.512;13.460;2023-05-29T08:25:50;2.28;;;1.33;;
50549;SDS011;36505;52.512;13.460;2023-05-29T08:28:15;3.50;;;1.92;;
50549;SDS011;36505;52.512;13.460;2023-05-29T08:30:41;3.05;;;1.70;;
50549;SDS011;36505;52.512;13.460;2023-05-29T08:33:06;3.42;;;1.40;;
50549;SDS011;36505;52.512;13.460;2023-05-29T08:35:32;4.35;;;2.10;;
50549;SDS011;36505;52.512;13.460;2023-05-29T08:37:58;3.22;;;1.88;;
50549;SDS011;36505;52.512;13.460;2023-05-29T08:40:23;2.40;;;1.42;;
50549;SDS011;36505;52.512;13.460;2023-05-29T08:42:56;6.05;;;1.90;;
50549;SDS011;36505;52.512;13.460;2023-05-29T08:45:23;2.45;;;1.38;;
50549;SDS011;36505;52.512;13.460;2023-05-29T08:47:53;5.03;;;1.65;;
50549;SDS011;36505;52.512;13.460;2023-05-29T08:50:19;4.10;;;1.95;;
50549;SDS011;36505;52.512;13.460;2023-05-29T08:52:46;4.18;;;1.60;;
50549;SDS011;36505;52.512;13.460;2023-05-29T08:55:11;4.18;;;1.63;;
50549;SDS011;36505;52.512;13.460;2023-05-29T08:57:37;4.10;;;1.92;;
50549;SDS011;36505;52.512;13.460;2023-05-29T09:00:06;3.28;;;1.60;;
50549;SDS011;36505;52.512;13.460;2023-05-29T09:02:38;3.40;;;1.83;;
50549;SDS011;36505;52.512;13.460;2023-05-29T09:05:10;6.40;;;2.05;;
50549;SDS011;36505;52.512;13.460;2023-05-29T09:07:37;3.22;;;2.10;;
50549;SDS011;36505;52.512;13.460;2023-05-29T09:10:08;8.05;;;2.60;;
50549;SDS011;36505;52.512;13.460;2023-05-29T09:12:34;4.38;;;2.10;;
50549;SDS011;36505;52.512;13.460;2023-05-29T09:15:00;5.47;;;2.30;;
50549;SDS011;36505;52.512;13.460;2023-05-29T09:17:30;4.22;;;2.13;;
50549;SDS011;36505;52.512;13.460;2023-05-29T09:19:57;6.57;;;1.98;;
50549;SDS011;36505;52.512;13.460;2023-05-29T09:22:23;6.03;;;2.88;;
50549;SDS011;36505;52.512;13.460;2023-05-29T09:24:48;3.47;;;2.00;;
50549;SDS011;36505;52.512;13.460;2023-05-29T09:27:15;3.33;;;1.98;;
50549;SDS011;36505;52.512;13.460;2023-05-29T09:29:43;3.38;;;2.00;;
50549;SDS011;36505;52.512;13.460;2023-05-29T09:32:11;7.22;;;2.70;;
50549;SDS011;36505;52.512;13.460;2023-05-29T09:34:36;5.38;;;2.13;;
50549;SDS011;36505;52.512;13.460;2023-05-29T09:37:05;5.70;;;2.58;;
50549;SDS011;36505;52.512;13.460;2023-05-29T09:42:06;5.53;;;2.83;;
50549;SDS011;36505;52.512;13.460;2023-05-29T09:44:32;5.50;;;1.85;;
50549;SDS011;36505;52.512;13.460;2023-05-29T09:46:58;5.35;;;2.20;;
50549;SDS011;36505;52.512;13.460;2023-05-29T09:49:25;3.50;;;1.85;;
50549;SDS011;36505;52.512;13.460;2023-05-29T09:51:53;7.32;;;2.05;;
50549;SDS011;36505;52.512;13.460;2023-05-29T09:54:19;7.22;;;2.85;;
50549;SDS011;36505;52.512;13.460;2023-05-29T09:56:45;10.45;;;3.67;;
50549;SDS011;36505;52.512;13.460;2023-05-29T09:59:11;4.88;;;2.15;;
50549;SDS011;36505;52.512;13.460;2023-05-29T10:01:39;3.45;;;2.10;;
50549;SDS011;36505;52.512;13.460;2023-05-29T10:04:09;5.13;;;2.20;;
50549;SDS011;36505;52.512;13.460;2023-05-29T10:06:36;6.65;;;2.65;;
50549;SDS011;36505;52.512;13.460;2023-05-29T10:09:03;3.70;;;2.00;;
50549;SDS011;36505;52.512;13.460;2023-05-29T10:11:34;3.83;;;2.20;;
50549;SDS011;36505;52.512;13.460;2023-05-29T10:14:02;9.20;;;3.38;;
50549;SDS011;36505;52.512;13.460;2023-05-29T10:16:30;4.90;;;2.38;;
50549;SDS011;36505;52.512;13.460;2023-05-29T10:19:02;6.70;;;2.43;;
50549;SDS011;36505;52.512;13.460;2023-05-29T10:21:32;5.15;;;2.30;;
50549;SDS011;36505;52.512;13.460;2023-05-29T10:24:02;3.78;;;2.22;;
50549;SDS011;36505;52.512;13.460;2023-05-29T10:26:33;5.10;;;2.22;;
50549;SDS011;36505;52.512;13.460;2023-05-29T10:40:06;3.28;;;2.30;;
50549;SDS011;36505;52.512;13.460;2023-05-29T10:50:41;4.07;;;2.10;;
50549;SDS011;36505;52.512;13.460;2023-05-29T10:53:23;5.28;;;2.42;;
50549;SDS011;36505;52.512;13.460;2023-05-29T10:55:50;3.33;;;1.95;;
50549;SDS011;36505;52.512;13.460;2023-05-29T10:58:19;6.93;;;2.45;;
50549;SDS011;36505;52.512;13.460;2023-05-29T11:00:46;6.18;;;2.40;;
50549;SDS011;36505;52.512;13.460;2023-05-29T11:11:14;5.45;;;2.47;;
50549;SDS011;36505;52.512;13.460;2023-05-29T11:13:40;5.05;;;2.92;;
50549;SDS011;36505;52.512;13.460;2023-05-29T11:18:38;4.18;;;2.03;;
50549;SDS011;36505;52.512;13.460;2023-05-29T11:21:05;3.65;;;1.83;;
50549;SDS011;36505;52.512;13.460;2023-05-29T11:23:42;10.60;;;3.92;;
50549;SDS011;36505;52.512;13.460;2023-05-29T11:26:10;5.82;;;1.90;;
50549;SDS011;36505;52.512;13.460;2023-05-29T11:28:37;4.30;;;1.90;;
50549;SDS011;36505;52.512;13.460;2023-05-29T11:31:02;4.28;;;1.77;;
50549;SDS011;36505;52.512;13.460;2023-05-29T11:33:33;3.55;;;2.13;;
50549;SDS011;36505;52.512;13.460;2023-05-29T11:36:04;4.80;;;2.58;;
50549;SDS011;36505;52.512;13.460;2023-05-29T11:38:31;4.32;;;1.95;;
50549;SDS011;36505;52.512;13.460;2023-05-29T11:40:57;4.97;;;2.40;;
50549;SDS011;36505;52.512;13.460;2023-05-29T11:43:25;5.07;;;2.25;;
50549;SDS011;36505;52.512;13.460;2023-05-29T11:45:51;4.18;;;1.80;;
50549;SDS011;36505;52.512;13.460;2023-05-29T11:48:16;6.45;;;1.92;;
50549;SDS011;36505;52.512;13.460;2023-05-29T11:50:42;7.20;;;2.55;;
50549;SDS011;36505;52.512;13.460;2023-05-29T11:53:08;11.23;;;2.78;;
50549;SDS011;36505;52.512;13.460;2023-05-29T11:55:34;5.47;;;2.97;;
50549;SDS011;36505;52.512;13.460;2023-05-29T11:58:01;5.80;;;1.95;;
50549;SDS011;36505;52.512;13.460;2023-05-29T12:00:37;3.25;;;2.17;;
50549;SDS011;36505;52.512;13.460;2023-05-29T12:03:04;8.70;;;2.95;;
50549;SDS011;36505;52.512;13.460;2023-05-29T12:05:32;4.00;;;2.42;;
50549;SDS011;36505;52.512;13.460;2023-05-29T12:08:09;4.80;;;2.40;;
50549;SDS011;36505;52.512;13.460;2023-05-29T12:10:35;5.47;;;2.00;;
50549;SDS011;36505;52.512;13.460;2023-05-29T12:13:00;7.63;;;2.17;;
50549;SDS011;36505;52.512;13.460;2023-05-29T12:15:26;3.88;;;2.15;;
50549;SDS011;36505;52.512;13.460;2023-05-29T12:17:52;7.18;;;2.10;;
50549;SDS011;36505;52.512;13.460;2023-05-29T12:20:19;7.15;;;3.13;;
50549;SDS011;36505;52.512;13.460;2023-05-29T12:22:48;3.90;;;2.22;;
50549;SDS011;36505;52.512;13.460;2023-05-29T12:25:15;3.60;;;2.35;;
50549;SDS011;36505;52.512;13.460;2023-05-29T12:27:42;5.60;;;2.50;;
50549;SDS011;36505;52.512;13.460;2023-05-29T12:30:09;6.68;;;2.25;;
50549;SDS011;36505;52.512;13.460;2023-05-29T12:32:36;6.57;;;2.33;;
50549;SDS011;36505;52.512;13.460;2023-05-29T12:38:00;10.82;;;2.88;;
50549;SDS011;36505;52.512;13.460;2023-05-29T12:40:31;6.55;;;1.88;;
50549;SDS011;36505;52.512;13.460;2023-05-29T12:42:59;7.30;;;2.25;;
50549;SDS011;36505;52.512;13.460;2023-05-29T12:45:28;7.05;;;2.20;;
50549;SDS011;36505;52.512;13.460;2023-05-29T12:48:05;5.80;;;2.10;;
50549;SDS011;36505;52.512;13.460;2023-05-29T12:50:35;7.43;;;2.90;;
50549;SDS011;36505;52.512;13.460;2023-05-29T12:53:10;7.43;;;2.45;;
50549;SDS011;36505;52.512;13.460;2023-05-29T12:55:37;6.15;;;2.25;;
50549;SDS011;36505;52.512;13.460;2023-05-29T12:58:04;5.53;;;2.22;;
50549;SDS011;36505;52.512;13.460;2023-05-29T13:00:32;6.78;;;3.03;;
50549;SDS011;36505;52.512;13.460;2023-05-29T13:02:58;6.65;;;2.45;;
50549;SDS011;36505;52.512;13.460;2023-05-29T13:05:24;7.18;;;2.03;;
50549;SDS011;36505;52.512;13.460;2023-05-29T13:07:49;8.15;;;2.20;;
50549;SDS011;36505;52.512;13.460;2023-05-29T13:10:17;5.88;;;2.00;;
50549;SDS011;36505;52.512;13.460;2023-05-29T13:12:44;20.63;;;2.80;;
50549;SDS011;36505;52.512;13.460;2023-05-29T13:15:11;7.22;;;2.20;;
50549;SDS011;36505;52.512;13.460;2023-05-29T13:17:37;6.13;;;2.20;;
50549;SDS011;36505;52.512;13.460;2023-05-29T13:20:07;6.80;;;2.40;;
50549;SDS011;36505;52.512;13.460;2023-05-29T13:22:34;7.70;;;2.58;;
50549;SDS011;36505;52.512;13.460;2023-05-29T13:25:00;11.30;;;2.67;;
50549;SDS011;36505;52.512;13.460;2023-05-29T13:27:26;7.40;;;2.53;;
50549;SDS011;36505;52.512;13.460;2023-05-29T13:29:52;6.78;;;2.42;;
50549;SDS011;36505;52.512;13.460;2023-05-29T13:32:18;7.13;;;2.22;;
50549;SDS011;36505;52.512;13.460;2023-05-29T13:34:43;4.57;;;2.30;;
50549;SDS011;36505;52.512;13.460;2023-05-29T13:37:09;5.35;;;2.20;;
50549;SDS011;36505;52.512;13.460;2023-05-29T13:39:34;6.47;;;2.30;;
50549;SDS011;36505;52.512;13.460;2023-05-29T13:42:00;4.30;;;2.33;;
50549;SDS011;36505;52.512;13.460;2023-05-29T13:44:25;6.75;;;2.53;;
50549;SDS011;36505;52.512;13.460;2023-05-29T13:46:51;6.75;;;3.10;;
50549;SDS011;36505;52.512;13.460;2023-05-29T13:49:17;5.95;;;2.30;;
50549;SDS011;36505;52.512;13.460;2023-05-29T13:51:42;5.78;;;2.33;;
50549;SDS011;36505;52.512;13.460;2023-05-29T13:54:07;4.63;;;2.40;;
50549;SDS011;36505;52.512;13.460;2023-05-29T13:56:33;6.97;;;2.38;;
50549;SDS011;36505;52.512;13.460;2023-05-29T13:58:58;5.50;;;1.80;;
50549;SDS011;36505;52.512;13.460;2023-05-29T14:01:28;6.72;;;2.72;;
50549;SDS011;36505;52.512;13.460;2023-05-29T14:03:55;7.82;;;2.28;;
50549;SDS011;36505;52.512;13.460;2023-05-29T14:06:20;8.85;;;2.13;;
50549;SDS011;36505;52.512;13.460;2023-05-29T14:08:46;9.85;;;2.47;;
50549;SDS011;36505;52.512;13.460;2023-05-29T14:11:11;21.08;;;4.18;;
50549;SDS011;36505;52.512;13.460;2023-05-29T14:13:36;3.35;;;1.80;;
50549;SDS011;36505;52.512;13.460;2023-05-29T14:16:02;9.10;;;2.22;;
50549;SDS011;36505;52.512;13.460;2023-05-29T14:18:27;8.18;;;2.17;;
50549;SDS011;36505;52.512;13.460;2023-05-29T14:20:52;8.80;;;2.15;;
50549;SDS011;36505;52.512;13.460;2023-05-29T14:23:18;4.55;;;2.10;;
50549;SDS011;36505;52.512;13.460;2023-05-29T14:25:43;5.75;;;2.08;;
50549;SDS011;36505;52.512;13.460;2023-05-29T14:28:09;4.68;;;1.80;;
50549;SDS011;36505;52.512;13.460;2023-05-29T14:30:35;6.45;;;1.95;;
50549;SDS011;36505;52.512;13.460;2023-05-29T14:33:02;4.65;;;1.90;;
50549;SDS011;36505;52.512;13.460;2023-05-29T14:35:27;7.13;;;2.40;;
50549;SDS011;36505;52.512;13.460;2023-05-29T14:37:52;4.72;;;2.35;;
50549;SDS011;36505;52.512;13.460;2023-05-29T14:40:18;7.00;;;3.92;;
50549;SDS011;36505;52.512;13.460;2023-05-29T14:42:43;4.57;;;2.42;;
50549;SDS011;36505;52.512;13.460;2023-05-29T14:45:08;7.60;;;1.70;;
50549;SDS011;36505;52.512;13.460;2023-05-29T14:47:37;5.78;;;2.30;;
50549;SDS011;36505;52.512;13.460;2023-05-29T14:50:02;9.30;;;2.40;;
50549;SDS011;36505;52.512;13.460;2023-05-29T14:52:28;5.32;;;2.50;;
50549;SDS011;36505;52.512;13.460;2023-05-29T14:54:53;5.78;;;2.35;;
50549;SDS011;36505;52.512;13.460;2023-05-29T14:57:19;5.80;;;3.05;;
50549;SDS011;36505;52.512;13.460;2023-05-29T14:59:45;4.28;;;2.22;;
50549;SDS011;36505;52.512;13.460;2023-05-29T15:02:10;6.95;;;2.78;;
50549;SDS011;36505;52.512;13.460;2023-05-29T15:04:35;10.43;;;2.30;;
50549;SDS011;36505;52.512;13.460;2023-05-29T15:07:01;5.55;;;2.38;;
50549;SDS011;36505;52.512;13.460;2023-05-29T15:09:27;8.93;;;2.10;;
50549;SDS011;36505;52.512;13.460;2023-05-29T15:11:52;7.30;;;2.28;;